createdAt,value
2023-05-17T00:02:30.331Z,17.50
2023-05-17T00:05:03.542Z,17.50
2023-05-17T00:07:36.248Z,17.50
2023-05-17T00:10:09.344Z,17.50
2023-05-17T00:12:42.086Z,17.50
2023-05-17T00:15:15.009Z,17.40
2023-05-17T00:17:47.646Z,17.50
2023-05-17T00:20:20.267Z,17.40
2023-05-17T00:22:52.896Z,17.40
2023-05-17T00:25:25.674Z,17.40
2023-05-17T00:27:58.433Z,17.40
2023-05-17T00:30:31.002Z,17.40
2023-05-17T00:33:04.592Z,17.40
2023-05-17T00:35:37.258Z,17.40
2023-05-17T00:38:09.851Z,17.40
2023-05-17T00:40:42.775Z,17.40
2023-05-17T00:43:15.481Z,17.40
2023-05-17T00:45:49.630Z,17.40
2023-05-17T00:48:22.485Z,17.30
2023-05-17T00:50:57.164Z,17.40
2023-05-17T00:53:30.877Z,17.40
2023-05-17T00:56:04.560Z,17.40
2023-05-17T00:58:41.101Z,17.40
2023-05-17T01:01:13.657Z,17.40
2023-05-17T01:03:46.698Z,17.40
2023-05-17T01:06:19.366Z,17.40
2023-05-17T01:08:52.312Z,17.40
2023-05-17T01:11:32.328Z,17.40
2023-05-17T01:14:38.543Z,17.40
2023-05-17T01:17:18.914Z,17.40
2023-05-17T01:20:07.018Z,17.40
2023-05-17T01:23:07.755Z,17.30
2023-05-17T01:26:15.498Z,17.30
2023-05-17T01:28:53.228Z,17.40
2023-05-17T01:31:26.452Z,17.30
2023-05-17T01:33:59.236Z,17.30
2023-05-17T01:36:33.732Z,17.40
2023-05-17T01:39:08.885Z,17.40
2023-05-17T01:41:44.679Z,17.40
2023-05-17T01:44:48.529Z,17.40
2023-05-17T01:47:28.618Z,17.40
2023-05-17T01:50:06.693Z,17.40
2023-05-17T01:52:51.476Z,17.40
2023-05-17T01:55:37.784Z,17.40
2023-05-17T01:58:12.956Z,17.40
2023-05-17T02:00:49.173Z,17.40
2023-05-17T02:03:22.143Z,17.40
2023-05-17T02:05:58.539Z,17.40
2023-05-17T02:08:31.140Z,17.40
2023-05-17T02:11:03.859Z,17.40
2023-05-17T02:13:36.487Z,17.40
2023-05-17T02:16:09.154Z,17.50
2023-05-17T02:18:41.926Z,17.50
2023-05-17T02:21:14.704Z,17.50
2023-05-17T02:23:47.416Z,17.50
2023-05-17T02:26:20.038Z,17.50
2023-05-17T02:28:52.639Z,17.50
2023-05-17T02:31:27.080Z,17.50
2023-05-17T02:33:59.727Z,17.50
2023-05-17T02:36:32.832Z,17.50
2023-05-17T02:39:05.408Z,17.50
2023-05-17T02:41:38.039Z,17.50
2023-05-17T02:44:10.940Z,17.50
2023-05-17T02:46:43.573Z,17.50
2023-05-17T02:49:18.621Z,17.50
2023-05-17T02:51:51.236Z,17.50
2023-05-17T02:54:24.004Z,17.50
2023-05-17T02:56:56.810Z,17.50
2023-05-17T02:59:29.336Z,17.50
2023-05-17T03:02:02.093Z,17.50
2023-05-17T03:04:35.152Z,17.50
2023-05-17T03:07:08.626Z,17.50
2023-05-17T03:09:43.111Z,17.50
2023-05-17T03:12:15.838Z,17.50
2023-05-17T03:14:48.606Z,17.50
2023-05-17T03:17:21.747Z,17.50
2023-05-17T03:19:55.689Z,17.40
2023-05-17T03:22:28.398Z,17.50
2023-05-17T03:25:02.028Z,17.50
2023-05-17T03:27:34.796Z,17.50
2023-05-17T03:30:08.523Z,17.40
2023-05-17T03:32:42.707Z,17.50
2023-05-17T03:35:15.373Z,17.50
2023-05-17T03:37:51.155Z,17.50
2023-05-17T03:40:23.895Z,17.50
2023-05-17T03:42:57.922Z,17.50
2023-05-17T03:45:31.968Z,17.50
2023-05-17T03:48:04.836Z,17.50
2023-05-17T03:50:37.716Z,17.50
2023-05-17T03:53:10.789Z,17.50
2023-05-17T03:55:44.295Z,17.50
2023-05-17T03:58:16.901Z,17.50
2023-05-17T04:00:49.502Z,17.50
2023-05-17T04:03:24.302Z,17.50
2023-05-17T04:06:07.181Z,17.50
2023-05-17T04:08:41.066Z,17.50
2023-05-17T04:11:13.745Z,17.50
2023-05-17T04:13:46.706Z,17.50
2023-05-17T04:16:19.686Z,17.50
2023-05-17T04:18:54.434Z,17.50
2023-05-17T04:21:27.625Z,17.40
2023-05-17T04:24:01.838Z,17.40
2023-05-17T04:26:34.820Z,17.50
2023-05-17T04:29:07.698Z,17.50
2023-05-17T04:31:40.385Z,17.50
2023-05-17T04:34:13.180Z,17.50
2023-05-17T04:36:46.145Z,17.60
2023-05-17T04:39:18.969Z,17.60
2023-05-17T04:41:51.962Z,17.60
2023-05-17T04:44:24.962Z,17.80
2023-05-17T04:46:57.697Z,17.90
2023-05-17T04:49:33.566Z,18.00
2023-05-17T04:52:06.588Z,18.20
2023-05-17T04:54:40.397Z,18.40
2023-05-17T04:57:13.054Z,18.60
2023-05-17T04:59:58.412Z,18.90
2023-05-17T05:02:32.038Z,19.00
2023-05-17T05:05:05.331Z,19.20
2023-05-17T05:07:40.164Z,19.30
2023-05-17T05:10:14.581Z,19.40
2023-05-17T05:12:47.820Z,19.50
2023-05-17T05:15:20.608Z,19.60
2023-05-17T05:17:59.484Z,19.70
2023-05-17T05:20:32.416Z,19.80
2023-05-17T05:23:06.634Z,19.80
2023-05-17T05:25:40.358Z,19.90
2023-05-17T05:28:13.010Z,20.10
2023-05-17T05:30:46.662Z,20.20
2023-05-17T05:33:20.724Z,20.40
2023-05-17T05:35:53.484Z,20.50
2023-05-17T05:38:26.285Z,20.60
2023-05-17T05:41:01.603Z,20.60
2023-05-17T05:43:36.457Z,20.60
2023-05-17T05:46:09.310Z,20.60
2023-05-17T05:48:42.314Z,20.50
2023-05-17T05:51:15.597Z,20.70
2023-05-17T05:53:49.776Z,20.80
2023-05-17T05:56:22.380Z,21.00
2023-05-17T05:58:55.930Z,21.10
2023-05-17T06:01:30.009Z,21.20
2023-05-17T06:04:02.564Z,21.30
2023-05-17T06:06:36.115Z,21.20
2023-05-17T06:09:12.495Z,21.30
2023-05-17T06:11:45.359Z,21.30
2023-05-17T06:14:17.890Z,21.30
2023-05-17T06:16:54.308Z,21.40
2023-05-17T06:19:27.057Z,21.50
2023-05-17T06:21:59.690Z,21.40
2023-05-17T06:24:33.293Z,21.50
2023-05-17T06:27:07.449Z,21.50
2023-05-17T06:29:40.051Z,21.50
2023-05-17T06:32:12.828Z,21.50
2023-05-17T06:34:45.463Z,21.50
2023-05-17T06:37:18.282Z,21.50
2023-05-17T06:40:00.114Z,21.60
2023-05-17T06:42:36.904Z,21.60
2023-05-17T06:45:10.719Z,21.50
2023-05-17T06:47:43.510Z,21.60
2023-05-17T06:50:16.255Z,21.60
2023-05-17T06:52:48.926Z,21.70
2023-05-17T06:55:21.517Z,21.60
2023-05-17T06:57:54.234Z,21.70
2023-05-17T07:00:27.159Z,21.70
2023-05-17T07:02:59.729Z,21.70
2023-05-17T07:05:32.632Z,21.70
2023-05-17T07:08:06.992Z,21.80
2023-05-17T07:10:39.533Z,21.80
2023-05-17T07:13:12.136Z,21.90
2023-05-17T07:15:45.109Z,22.00
2023-05-17T07:18:18.049Z,22.10
2023-05-17T07:20:50.875Z,22.10
2023-05-17T07:23:23.464Z,22.20
2023-05-17T07:25:56.002Z,22.20
2023-05-17T07:28:28.592Z,22.30
2023-05-17T07:31:01.893Z,22.40
2023-05-17T07:33:34.559Z,22.50
2023-05-17T07:36:07.486Z,22.50
2023-05-17T07:38:39.994Z,22.60
2023-05-17T07:41:14.204Z,22.60
2023-05-17T07:44:12.098Z,22.70
2023-05-17T07:46:44.688Z,22.70
2023-05-17T07:49:17.376Z,22.70
2023-05-17T07:51:50.190Z,22.80
2023-05-17T07:54:24.943Z,22.80
2023-05-17T07:56:57.568Z,22.90
2023-05-17T07:59:30.276Z,22.90
2023-05-17T08:02:02.823Z,23.00
2023-05-17T08:04:35.810Z,23.10
2023-05-17T08:07:08.473Z,23.10
2023-05-17T08:09:43.898Z,23.20
2023-05-17T08:12:18.597Z,23.30
2023-05-17T08:14:51.892Z,23.30
2023-05-17T08:17:24.796Z,23.30
2023-05-17T08:19:57.352Z,23.40
2023-05-17T08:22:30.007Z,23.40
2023-05-17T08:25:03.088Z,23.50
2023-05-17T08:27:35.677Z,23.50
2023-05-17T08:30:11.895Z,23.60
2023-05-17T08:32:48.225Z,23.60
2023-05-17T08:35:22.006Z,23.70
2023-05-17T08:37:54.705Z,23.70
2023-05-17T08:40:29.563Z,23.80
2023-05-17T08:43:03.571Z,23.80
2023-05-17T08:45:37.124Z,23.90
2023-05-17T08:48:10.050Z,23.90
2023-05-17T08:50:44.178Z,23.90
2023-05-17T08:53:17.777Z,24.00
2023-05-17T08:55:51.955Z,24.00
2023-05-17T08:58:30.009Z,24.10
2023-05-17T09:01:04.628Z,24.10
2023-05-17T09:03:40.799Z,24.10
2023-05-17T09:06:14.360Z,24.10
2023-05-17T09:08:47.869Z,24.20
2023-05-17T09:11:28.141Z,24.20
2023-05-17T09:14:02.321Z,24.30
2023-05-17T09:16:36.560Z,24.30
2023-05-17T09:19:14.734Z,24.30
2023-05-17T09:21:48.090Z,24.40
2023-05-17T09:24:30.515Z,24.40
2023-05-17T09:27:04.395Z,24.40
2023-05-17T09:29:39.717Z,24.50
2023-05-17T09:32:22.941Z,24.50
2023-05-17T09:34:59.281Z,24.50
2023-05-17T09:37:31.947Z,24.60
2023-05-17T09:40:07.129Z,24.60
2023-05-17T09:42:41.061Z,24.60
2023-05-17T09:45:14.850Z,24.60
2023-05-17T09:47:48.461Z,24.60
2023-05-17T09:50:24.517Z,24.60
2023-05-17T09:52:58.662Z,24.70
2023-05-17T09:55:32.606Z,24.70
2023-05-17T09:58:05.211Z,24.70
2023-05-17T10:00:37.930Z,24.70
2023-05-17T10:03:14.266Z,24.80
2023-05-17T10:05:50.827Z,24.80
2023-05-17T10:08:27.616Z,24.90
2023-05-17T10:11:13.022Z,24.90
2023-05-17T10:13:55.090Z,24.90
2023-05-17T10:16:28.955Z,25.00
2023-05-17T10:19:05.089Z,24.90
2023-05-17T10:21:39.686Z,24.90
2023-05-17T10:24:12.993Z,25.00
2023-05-17T10:26:45.815Z,25.00
2023-05-17T10:29:21.692Z,25.00
2023-05-17T10:31:59.199Z,25.00
2023-05-17T10:34:34.179Z,25.00
2023-05-17T10:37:08.149Z,25.00
2023-05-17T10:39:43.873Z,25.00
2023-05-17T10:42:18.155Z,25.00
2023-05-17T10:44:53.390Z,24.90
2023-05-17T10:47:33.463Z,25.00
2023-05-17T10:50:15.584Z,24.90
2023-05-17T10:52:49.876Z,24.90
2023-05-17T10:55:25.203Z,24.90
2023-05-17T10:58:22.814Z,24.90
2023-05-17T11:00:56.171Z,24.90
2023-05-17T11:03:30.514Z,24.90
2023-05-17T11:06:23.599Z,24.90
2023-05-17T11:09:16.739Z,24.90
2023-05-17T11:12:12.153Z,24.80
2023-05-17T11:14:55.356Z,24.90
2023-05-17T11:17:52.883Z,24.80
2023-05-17T11:23:27.134Z,24.80
2023-05-17T11:26:17.900Z,24.80
2023-05-17T11:29:05.495Z,24.70
2023-05-17T11:31:43.504Z,24.70
2023-05-17T11:34:19.298Z,24.70
2023-05-17T11:36:53.501Z,24.70
2023-05-17T11:39:27.235Z,24.70
2023-05-17T11:41:59.754Z,24.70
2023-05-17T11:44:34.389Z,24.70
2023-05-17T11:47:11.669Z,24.70
2023-05-17T11:49:44.548Z,24.70
2023-05-17T11:52:17.038Z,24.70
2023-05-17T11:54:50.872Z,24.60
2023-05-17T11:57:30.836Z,24.60
2023-05-17T12:00:05.746Z,24.60
2023-05-17T12:02:47.580Z,24.60
2023-05-17T12:05:22.898Z,24.50
2023-05-17T12:07:56.408Z,24.50
2023-05-17T12:10:31.648Z,24.50
2023-05-17T12:13:07.701Z,24.40
2023-05-17T12:15:41.564Z,24.50
2023-05-17T12:18:14.939Z,24.40
2023-05-17T12:20:58.126Z,24.40
2023-05-17T12:23:34.440Z,24.40
2023-05-17T12:26:11.978Z,24.30
2023-05-17T12:28:47.506Z,24.40
2023-05-17T12:31:25.521Z,24.30
2023-05-17T12:33:59.666Z,24.30
2023-05-17T12:36:37.616Z,24.30
2023-05-17T12:39:14.710Z,24.30
2023-05-17T12:41:48.540Z,24.20
2023-05-17T12:44:21.379Z,24.20
2023-05-17T12:46:56.540Z,24.00
2023-05-17T12:49:29.155Z,23.90
2023-05-17T12:52:05.807Z,23.70
2023-05-17T12:54:40.640Z,23.50
2023-05-17T12:57:16.257Z,23.40
2023-05-17T12:59:52.179Z,23.30
2023-05-17T13:02:24.979Z,23.20
2023-05-17T13:04:57.557Z,23.10
2023-05-17T13:07:30.218Z,22.90
2023-05-17T13:10:02.855Z,22.80
2023-05-17T13:12:39.421Z,22.70
2023-05-17T13:15:12.281Z,22.70
2023-05-17T13:17:50.307Z,22.60
2023-05-17T13:20:23.325Z,22.50
2023-05-17T13:22:55.885Z,22.50
2023-05-17T13:25:28.496Z,22.40
2023-05-17T13:28:02.767Z,22.40
2023-05-17T13:30:36.320Z,22.40
2023-05-17T13:33:10.045Z,22.40
2023-05-17T13:35:42.853Z,22.30
2023-05-17T13:38:15.423Z,22.20
2023-05-17T13:40:48.085Z,22.20
2023-05-17T13:43:20.651Z,22.20
2023-05-17T13:45:57.107Z,22.20
2023-05-17T13:48:30.199Z,22.20
2023-05-17T13:51:02.988Z,22.20
2023-05-17T13:53:35.487Z,22.20
2023-05-17T13:56:09.616Z,22.20
2023-05-17T13:58:42.327Z,22.20
2023-05-17T14:01:15.034Z,22.20
2023-05-17T14:03:47.614Z,22.20
2023-05-17T14:06:20.651Z,22.20
2023-05-17T14:08:54.724Z,22.10
2023-05-17T14:11:27.592Z,22.00
2023-05-17T14:14:01.451Z,22.00
2023-05-17T14:16:34.063Z,22.00
2023-05-17T14:19:06.794Z,21.90
2023-05-17T14:21:39.594Z,21.90
2023-05-17T14:24:12.295Z,21.90
2023-05-17T14:26:44.908Z,21.80
2023-05-17T14:29:17.607Z,21.80
2023-05-17T14:31:50.328Z,21.80
2023-05-17T14:34:23.022Z,21.80
2023-05-17T14:36:55.949Z,21.80
2023-05-17T14:39:28.731Z,21.70
2023-05-17T14:42:31.031Z,21.70
2023-05-17T14:45:03.832Z,21.80
2023-05-17T14:47:37.869Z,21.70
2023-05-17T14:50:11.361Z,21.80
2023-05-17T14:52:44.556Z,21.70
2023-05-17T14:55:17.262Z,21.80
2023-05-17T14:57:52.327Z,21.70
2023-05-17T15:00:27.297Z,21.70
2023-05-17T15:03:00.071Z,21.70
2023-05-17T15:05:34.000Z,21.70
2023-05-17T15:08:07.702Z,21.70
2023-05-17T15:10:43.630Z,21.70
2023-05-17T15:13:16.668Z,21.70
2023-05-17T15:15:49.071Z,21.70
2023-05-17T15:18:22.723Z,21.70
2023-05-17T15:20:55.306Z,21.80
2023-05-17T15:23:28.048Z,21.80
2023-05-17T15:26:00.755Z,21.80
2023-05-17T15:28:33.391Z,21.80
2023-05-17T15:31:12.137Z,21.80
2023-05-17T15:33:44.790Z,21.70
2023-05-17T15:36:17.412Z,21.70
2023-05-17T15:38:50.103Z,21.70
2023-05-17T15:41:29.883Z,21.60
2023-05-17T15:44:02.867Z,21.60
2023-05-17T15:46:35.493Z,21.60
2023-05-17T15:49:08.153Z,21.60
2023-05-17T15:51:40.712Z,21.50
2023-05-17T15:54:13.405Z,21.50
2023-05-17T15:56:46.448Z,21.50
2023-05-17T15:59:18.929Z,21.50
2023-05-17T16:01:51.561Z,21.50
2023-05-17T16:04:24.266Z,21.40
2023-05-17T16:06:56.873Z,21.40
2023-05-17T16:09:29.488Z,21.50
2023-05-17T16:12:02.060Z,21.40
2023-05-17T16:14:34.579Z,21.40
2023-05-17T16:17:07.202Z,21.40
2023-05-17T16:19:39.821Z,21.40
2023-05-17T16:22:13.578Z,21.40
2023-05-17T16:24:46.188Z,21.40
2023-05-17T16:27:18.782Z,21.30
2023-05-17T16:30:07.034Z,21.30
2023-05-17T16:32:39.994Z,21.30
2023-05-17T16:35:13.053Z,21.30
2023-05-17T16:37:45.475Z,21.30
2023-05-17T16:40:18.076Z,21.30
2023-05-17T16:42:50.719Z,21.30
2023-05-17T16:45:23.388Z,21.30
2023-05-17T16:47:56.154Z,21.30
2023-05-17T16:50:28.977Z,21.30
2023-05-17T16:53:01.702Z,21.30
2023-05-17T16:55:36.361Z,21.30
2023-05-17T16:58:09.366Z,21.20
2023-05-17T17:00:42.350Z,21.20
2023-05-17T17:03:17.820Z,21.20
2023-05-17T17:05:50.587Z,21.20
2023-05-17T17:08:23.271Z,21.20
2023-05-17T17:10:55.990Z,21.20
2023-05-17T17:13:33.552Z,21.20
2023-05-17T17:16:07.094Z,21.20
2023-05-17T17:18:39.534Z,21.10
2023-05-17T17:21:12.223Z,21.10
2023-05-17T17:23:44.930Z,21.10
2023-05-17T17:26:18.186Z,21.10
2023-05-17T17:28:50.904Z,21.10
2023-05-17T17:31:23.492Z,21.00
2023-05-17T17:33:56.375Z,21.10
2023-05-17T17:36:29.128Z,21.00
2023-05-17T17:39:01.784Z,21.00
2023-05-17T17:41:34.382Z,21.00
2023-05-17T17:44:06.991Z,21.00
2023-05-17T17:46:39.686Z,20.90
2023-05-17T17:49:12.242Z,20.90
2023-05-17T17:51:44.823Z,20.90
2023-05-17T17:54:17.446Z,20.80
2023-05-17T17:56:49.993Z,20.80
2023-05-17T17:59:22.627Z,20.80
2023-05-17T18:01:55.272Z,20.80
2023-05-17T18:04:28.158Z,20.80
2023-05-17T18:07:02.253Z,20.70
2023-05-17T18:09:34.844Z,20.70
2023-05-17T18:12:08.157Z,20.70
2023-05-17T18:14:41.222Z,20.70
2023-05-17T18:17:14.200Z,20.70
2023-05-17T18:19:48.661Z,20.60
2023-05-17T18:22:21.970Z,20.60
2023-05-17T18:24:54.595Z,20.60
2023-05-17T18:27:27.382Z,20.60
2023-05-17T18:30:24.941Z,20.60
2023-05-17T18:32:57.662Z,20.60
2023-05-17T18:35:30.349Z,20.60
2023-05-17T18:38:02.850Z,20.50
2023-05-17T18:40:35.700Z,20.50
2023-05-17T18:43:08.265Z,20.50
2023-05-17T18:45:40.997Z,20.50
2023-05-17T18:48:13.723Z,20.50
2023-05-17T18:50:46.491Z,20.50
2023-05-17T18:53:19.125Z,20.40
2023-05-17T18:55:51.957Z,20.40
2023-05-17T18:58:24.471Z,20.50
2023-05-17T19:00:57.515Z,20.40
2023-05-17T19:03:30.001Z,20.40
2023-05-17T19:06:02.702Z,20.40
2023-05-17T19:08:36.236Z,20.40
2023-05-17T19:11:10.263Z,20.40
2023-05-17T19:13:42.940Z,20.30
2023-05-17T19:16:20.844Z,20.30
2023-05-17T19:18:54.804Z,20.20
2023-05-17T19:21:27.855Z,20.20
2023-05-17T19:24:03.165Z,20.20
2023-05-17T19:26:36.185Z,20.20
2023-05-17T19:29:10.269Z,20.20
2023-05-17T19:31:43.329Z,20.20
2023-05-17T19:34:16.689Z,20.20
2023-05-17T19:36:52.397Z,20.10
2023-05-17T19:39:26.877Z,20.10
2023-05-17T19:42:00.792Z,20.20
2023-05-17T19:44:33.730Z,20.10
2023-05-17T19:47:09.519Z,20.10
2023-05-17T19:49:43.391Z,20.10
2023-05-17T19:52:16.887Z,20.10
2023-05-17T19:54:51.292Z,20.10
2023-05-17T19:57:23.901Z,20.10
2023-05-17T19:59:57.023Z,20.10
2023-05-17T20:02:30.513Z,20.10
2023-05-17T20:05:04.478Z,20.10
2023-05-17T20:07:39.050Z,20.10
2023-05-17T20:10:13.786Z,20.10
2023-05-17T20:12:47.296Z,20.10
2023-05-17T20:15:21.072Z,20.10
2023-05-17T20:17:57.410Z,20.10
2023-05-17T20:32:18.887Z,20.00
2023-05-17T20:34:51.606Z,20.30
2023-05-17T20:37:24.221Z,20.30
2023-05-17T20:40:00.332Z,20.30
2023-05-17T20:42:33.245Z,20.30
2023-05-17T20:45:06.412Z,20.30
2023-05-17T20:47:38.926Z,20.20
2023-05-17T20:50:15.657Z,20.20
2023-05-17T20:52:48.265Z,20.10
2023-05-17T20:55:21.144Z,20.10
2023-05-17T20:57:53.779Z,20.10
2023-05-17T21:00:26.352Z,20.10
2023-05-17T21:02:59.046Z,20.00
2023-05-17T21:05:36.203Z,20.00
2023-05-17T21:08:08.830Z,19.90
2023-05-17T21:10:43.066Z,19.90
2023-05-17T21:13:15.689Z,19.90
2023-05-17T21:15:48.353Z,19.80
2023-05-17T21:18:21.376Z,19.80
2023-05-17T21:20:55.269Z,19.80
2023-05-17T21:23:27.962Z,19.80
2023-05-17T21:26:00.598Z,19.70
2023-05-17T21:28:33.371Z,19.70
2023-05-17T21:31:06.279Z,19.70
2023-05-17T21:33:38.909Z,19.60
2023-05-17T21:36:11.501Z,19.60
2023-05-17T21:38:44.230Z,19.60
2023-05-17T21:41:16.852Z,19.60
2023-05-17T21:43:50.037Z,19.60
2023-05-17T21:46:22.485Z,19.50
2023-05-17T21:48:55.077Z,19.50
2023-05-17T21:51:27.614Z,19.50
2023-05-17T21:54:00.216Z,19.50
2023-05-17T21:56:33.027Z,19.50
2023-05-17T21:59:05.855Z,19.40
2023-05-17T22:01:38.420Z,19.40
2023-05-17T22:04:11.227Z,19.40
2023-05-17T22:06:43.957Z,19.30
2023-05-17T22:09:16.520Z,19.30
2023-05-17T22:11:49.532Z,19.30
2023-05-17T22:14:22.076Z,19.30
2023-05-17T22:16:56.312Z,19.30
2023-05-17T22:19:30.536Z,19.30
2023-05-17T22:22:03.968Z,19.20
2023-05-17T22:24:36.770Z,19.20
2023-05-17T22:27:09.343Z,19.10
2023-05-17T22:29:48.536Z,19.20
2023-05-17T22:32:24.184Z,19.20
2023-05-17T22:34:56.813Z,19.20
2023-05-17T22:37:30.576Z,19.10
2023-05-17T22:40:03.700Z,19.10
2023-05-17T22:42:36.141Z,19.10
2023-05-17T22:45:09.302Z,19.10
2023-05-17T22:47:46.994Z,19.00
2023-05-17T22:50:19.833Z,19.00
2023-05-17T22:52:53.439Z,19.00
2023-05-17T22:55:26.110Z,19.00
2023-05-17T22:57:58.974Z,18.90
2023-05-17T23:00:31.748Z,18.90
2023-05-17T23:03:04.730Z,18.90
2023-05-17T23:05:37.608Z,18.90
2023-05-17T23:08:10.301Z,18.90
2023-05-17T23:10:46.147Z,18.90
2023-05-17T23:13:19.302Z,18.90
2023-05-17T23:15:52.813Z,18.80
2023-05-17T23:18:29.383Z,18.90
2023-05-17T23:21:05.471Z,18.80
2023-05-17T23:23:38.542Z,18.80
2023-05-17T23:26:19.435Z,18.70
2023-05-17T23:28:55.590Z,18.70
2023-05-17T23:31:30.302Z,18.70
2023-05-17T23:34:02.997Z,18.70
2023-05-17T23:36:35.614Z,18.70
2023-05-17T23:39:08.687Z,18.70
2023-05-17T23:41:43.185Z,18.70
2023-05-17T23:44:18.130Z,18.70
2023-05-17T23:46:52.524Z,18.60
2023-05-17T23:49:25.207Z,18.60
2023-05-17T23:51:58.201Z,18.60
2023-05-17T23:54:32.933Z,18.60
2023-05-17T23:57:06.671Z,18.60
2023-05-17T23:59:39.703Z,18.60
